Pagrindinis puslapis
METAR-TAF:

METAR-TAF

Oro uostai :

Abadanas, Iranas

platuma: 30-22N, ilguma: 048-15E, Aukštis: 3 m

Dabartinis oras

Ataskaita buvo paskelbta 57 minutes, ne 23:00 UTC
Vėjas 4 kt iš Vakarų
Temperatūra 24°C
Drėgmė 47%
Slėgis 1011 hPa
Matomumas 10 km arba daugiau
nėra debesų žemiau 1500 m ir nėra kamuolinių lietaus debesų

METAR: OIAA 182300Z 26004KT CAVOK 24/12 Q1011

Laikas: 03:27 (23:57 UTC)

Prognozė

Ataskaita buvo paskelbta 57 minutes, ne 23:00 UTC
Prognozė galioja nuo 19 metu 00 UTC su 20 metu 06 UTC
Vėjas 6 kt iš Vakarų/Šiaurės Vakarų
Matomumas: 7000 m
Laikinai
nuo 19 metu 00 UTC su 19 metu 04 UTC
Matomumas: 4000 m
migla
Laikinai
nuo 18 metu 08 UTC su 18 metu 14 UTC
Vėjas 16 kt iš Šiaurės Vakarų
Laikinai
nuo 20 metu 00 UTC su 20 metu 05 UTC
Matomumas: 4000 m
migla

TAF: OIAA 182300Z 1900/2006 29006KT 7000 NSC TEMPO 1900/1904 4000 HZ TEMPO 1808/1814 32016KT TEMPO 2000/2005 4000 HZ

Orai ataskaitas ir orų prognozės (METAR, TAF).

turimą stotys yra geltonos ir raudonos taškus žemėlapyje.

Perkelti pele per norėdami pamatyti stoties vardą.

Tada spustelėkite, norėdami matyti oro stebėjimo ir prognozės.

Norėdami pakeisti žemėlapį: spustelėkite ant žalios mygtukų su juodo kryžiaus žemyn,; žalią mygtuką su brūkšneliu, jei norite nutolinti; arba žalių rodyklių gretimoms žemėlapius.


METAR-TAF: